Time;durP1;ratioP1;P1;durP2;ratioP2;P2;SDS_P1;SDS_P2;PMS_P1;PMS_P2;Temp;Humidity;BMP_temperature;BMP_pressure;BME280_temperature;BME280_humidity;BME280_pressure;Samples;Min_cycle;Max_cycle;Signal;HPM_P1;HPM_P2
2022/07/01 00:00:12;;;;;;;;;;;;;;;16.39;100.00;91024.22;5013409;28;19913;-63
2022/07/01 00:02:37;;;;;;;;;;;;;;;16.39;100.00;91028.78;5013484;28;20068;-63
2022/07/01 00:05:02;;;;;;;;;;;;;;;16.40;100.00;91025.78;5013476;28;19957;-63
2022/07/01 00:07:28;;;;;;;;;;;;;;;16.40;100.00;91033.81;5013494;28;19914;-63
2022/07/01 00:09:53;;;;;;;;;;;;;;;16.39;100.00;91034.94;5013339;28;19919;-63
2022/07/01 00:12:18;;;;;;;;;;;;;;;16.40;100.00;91031.13;5013448;28;19913;-63
2022/07/01 00:14:44;;;;;;;;;;;;;;;16.17;100.00;91038.16;5013415;28;20032;-63
2022/07/01 00:17:09;;;;;;;;;;;;;;;16.09;100.00;91047.09;5013412;28;19952;-63
2022/07/01 00:19:34;;;;;;;;;;;;;;;16.01;100.00;91040.75;5012981;28;19971;-64
2022/07/01 00:22:00;;;;;;;;;;;;;;;15.98;100.00;91051.41;5013312;28;19917;-64
2022/07/01 00:24:26;;;;;;;;;;;;;;;15.94;100.00;91047.81;5013494;28;19957;-63
2022/07/01 00:26:52;;;;;;;;;;;;;;;15.88;100.00;91041.91;5013269;28;19920;-64
2022/07/01 00:29:17;;;;;;;;;;;;;;;15.86;100.00;91044.13;5013091;28;19921;-63
2022/07/01 00:31:42;;;;;;;;;;;;;;;15.90;100.00;91044.25;5013109;28;19913;-63
2022/07/01 00:34:08;;;;;;;;;;;;;;;15.95;100.00;91049.41;5012937;28;20387;-63
2022/07/01 00:36:33;;;;;;;;;;;;;;;15.96;100.00;91042.91;5012922;28;20011;-63
2022/07/01 00:38:59;;;;;;;;;;;;;;;16.00;100.00;91043.78;5012760;28;19920;-63
2022/07/01 00:41:25;;;;;;;;;;;;;;;16.09;100.00;91047.09;5012953;28;19992;-63
2022/07/01 00:43:50;;;;;;;;;;;;;;;16.09;100.00;91052.47;5012908;28;20399;-63
2022/07/01 00:46:16;;;;;;;;;;;;;;;16.16;100.00;91058.84;5012791;28;20280;-62
2022/07/01 00:48:42;;;;;;;;;;;;;;;16.02;100.00;91063.78;5012643;28;19913;-63
2022/07/01 00:51:07;;;;;;;;;;;;;;;15.96;100.00;91064.38;5012713;28;20012;-62
2022/07/01 00:53:32;;;;;;;;;;;;;;;15.99;100.00;91051.06;5012620;28;19920;-63
2022/07/01 00:55:58;;;;;;;;;;;;;;;16.07;100.00;91060.09;5012702;28;19921;-63
2022/07/01 00:58:25;;;;;;;;;;;;;;;16.13;100.00;91053.38;5012409;28;19913;-63
2022/07/01 01:00:50;;;;;;;;;;;;;;;16.07;100.00;91065.44;5012486;28;19960;-63
2022/07/01 01:03:16;;;;;;;;;;;;;;;16.03;100.00;91060.00;5012554;28;19953;-63
2022/07/01 01:05:41;;;;;;;;;;;;;;;15.92;100.00;91053.50;5012359;28;19913;-63
2022/07/01 01:08:08;;;;;;;;;;;;;;;15.93;100.00;91065.81;5011936;28;19914;-63
2022/07/01 01:10:35;;;;;;;;;;;;;;;15.85;100.00;91053.31;5012456;28;19972;-63
2022/07/01 01:13:00;;;;;;;;;;;;;;;15.79;100.00;91057.34;5012647;28;19948;-63
2022/07/01 01:15:27;;;;;;;;;;;;;;;15.70;100.00;91056.66;5012392;28;19957;-63
2022/07/01 01:17:52;;;;;;;;;;;;;;;15.58;100.00;91052.06;5012173;28;19913;-63
2022/07/01 01:20:18;;;;;;;;;;;;;;;15.49;100.00;91051.41;5012048;28;19975;-63
2022/07/01 01:22:44;;;;;;;;;;;;;;;15.48;100.00;91049.84;5012192;28;19940;-63
2022/07/01 01:25:10;;;;;;;;;;;;;;;15.39;100.00;91057.19;5012247;28;19918;-63
2022/07/01 01:27:36;;;;;;;;;;;;;;;15.30;100.00;91059.97;5011991;28;20363;-63
2022/07/01 01:30:02;;;;;;;;;;;;;;;15.21;100.00;91051.25;5012228;28;19913;-63
2022/07/01 01:32:28;;;;;;;;;;;;;;;15.28;100.00;91052.25;5012004;28;19917;-63
2022/07/01 01:34:53;;;;;;;;;;;;;;;15.40;100.00;91048.03;5011999;28;20064;-63
2022/07/01 01:37:18;;;;;;;;;;;;;;;15.46;100.00;91055.53;5012036;28;19924;-63
2022/07/01 01:39:43;;;;;;;;;;;;;;;15.45;100.00;91056.63;5011817;28;20424;-63
2022/07/01 01:42:09;;;;;;;;;;;;;;;15.40;100.00;91054.19;5011445;28;19917;-63
2022/07/01 01:44:34;;;;;;;;;;;;;;;15.33;100.00;91066.56;5012016;28;20502;-63
2022/07/01 01:46:59;;;;;;;;;;;;;;;15.32;100.00;91068.47;5011982;28;19913;-64
2022/07/01 01:49:25;;;;;;;;;;;;;;;15.32;100.00;91062.34;5011752;28;19921;-62
2022/07/01 01:51:50;;;;;;;;;;;;;;;15.25;100.00;91057.50;5011814;28;19921;-62
2022/07/01 01:54:15;;;;;;;;;;;;;;;15.22;100.00;91061.63;5011798;28;19913;-62
2022/07/01 01:56:40;;;;;;;;;;;;;;;15.19;100.00;91056.16;5011799;28;19924;-62
2022/07/01 01:59:06;;;;;;;;;;;;;;;15.25;100.00;91063.66;5011659;28;20402;-63
2022/07/01 02:01:32;;;;;;;;;;;;;;;15.32;100.00;91070.38;5011770;28;19913;-62
2022/07/01 02:06:32;;;;;;;;;;;;;;;15.27;100.00;91057.97;5088731;23;19921;-65
2022/07/01 02:08:58;;;;;;;;;;;;;;;15.27;100.00;91061.41;5031446;28;19936;-64
2022/07/01 02:11:23;;;;;;;;;;;;;;;15.22;100.00;91068.91;5031722;28;19913;-65
2022/07/01 02:13:48;;;;;;;;;;;;;;;15.20;100.00;91057.72;5031446;28;20032;-64
2022/07/01 02:16:13;;;;;;;;;;;;;;;15.15;100.00;91064.09;5031277;28;19975;-64
2022/07/01 02:18:39;;;;;;;;;;;;;;;15.12;100.00;91069.31;5034007;28;19949;-64
2022/07/01 02:21:04;;;;;;;;;;;;;;;15.12;100.00;91072.00;5035374;28;20485;-64
2022/07/01 02:23:29;;;;;;;;;;;;;;;15.14;100.00;91062.50;5035292;28;19912;-64
2022/07/01 02:25:55;;;;;;;;;;;;;;;15.19;100.00;91065.00;5035166;28;19913;-64
2022/07/01 02:28:20;;;;;;;;;;;;;;;15.22;100.00;91067.00;5035159;28;19917;-65
2022/07/01 02:30:46;;;;;;;;;;;;;;;15.23;100.00;91071.25;5035155;28;19917;-65
2022/07/01 02:33:11;;;;;;;;;;;;;;;15.22;100.00;91069.69;5035067;28;19913;-64
2022/07/01 02:35:37;;;;;;;;;;;;;;;15.21;100.00;91070.81;5034922;28;19912;-65
2022/07/01 02:38:03;;;;;;;;;;;;;;;15.12;100.00;91067.41;5035033;28;20382;-64
2022/07/01 02:40:28;;;;;;;;;;;;;;;15.09;100.00;91073.44;5034912;28;19984;-65
2022/07/01 02:42:54;;;;;;;;;;;;;;;14.99;100.00;91073.91;5034946;28;19921;-65
2022/07/01 02:45:19;;;;;;;;;;;;;;;14.96;100.00;91071.84;5035088;28;19916;-63
2022/07/01 02:47:44;;;;;;;;;;;;;;;14.92;100.00;91066.38;5034814;28;19913;-63
2022/07/01 02:50:13;;;;;;;;;;;;;;;14.87;100.00;91068.50;5034714;28;20429;-64
2022/07/01 02:52:39;;;;;;;;;;;;;;;14.93;100.00;91072.53;5034664;28;19913;-63
2022/07/01 02:55:05;;;;;;;;;;;;;;;15.03;100.00;91077.47;5034551;28;19913;-63
2022/07/01 02:57:30;;;;;;;;;;;;;;;15.01;100.00;91071.66;5034521;28;19963;-63
2022/07/01 02:59:55;;;;;;;;;;;;;;;15.04;100.00;91072.88;5034512;28;19917;-63
2022/07/01 03:02:21;;;;;;;;;;;;;;;14.98;100.00;91077.66;5034754;28;19924;-63
2022/07/01 03:04:47;;;;;;;;;;;;;;;14.88;100.00;91083.44;5034183;28;20398;-63
2022/07/01 03:07:13;;;;;;;;;;;;;;;14.81;100.00;91086.66;5034453;28;20386;-63
2022/07/01 03:09:39;;;;;;;;;;;;;;;14.84;100.00;91079.88;5034363;28;19913;-63
2022/07/01 03:12:24;;;;;;;;;;;;;;;14.83;100.00;91089.00;5034579;28;19940;-63
2022/07/01 03:14:51;;;;;;;;;;;;;;;14.84;100.00;91085.22;5016683;28;20321;-63
2022/07/01 03:17:16;;;;;;;;;;;;;;;14.84;100.00;91102.09;5034447;28;19971;-63
2022/07/01 03:19:41;;;;;;;;;;;;;;;14.84;100.00;91096.72;5034005;28;19964;-63
2022/07/01 03:22:06;;;;;;;;;;;;;;;14.84;100.00;91094.03;5016346;28;19920;-63
2022/07/01 03:24:32;;;;;;;;;;;;;;;14.85;100.00;91100.19;5033909;28;19913;-64
2022/07/01 03:26:59;;;;;;;;;;;;;;;14.88;100.00;91096.84;5033985;28;19913;-64
2022/07/01 03:29:24;;;;;;;;;;;;;;;14.90;100.00;91108.00;5033075;28;19923;-63
2022/07/01 03:31:49;;;;;;;;;;;;;;;14.91;100.00;91109.56;5033967;28;19913;-64
2022/07/01 03:34:15;;;;;;;;;;;;;;;14.98;100.00;91109.81;5033826;28;19913;-64
2022/07/01 03:36:40;;;;;;;;;;;;;;;15.16;100.00;91108.53;5033900;28;20007;-64
2022/07/01 03:39:05;;;;;;;;;;;;;;;15.25;100.00;91106.53;5033708;28;19917;-64
2022/07/01 03:41:30;;;;;;;;;;;;;;;15.34;100.00;91103.78;5033760;28;19955;-64
2022/07/01 03:43:56;;;;;;;;;;;;;;;15.42;100.00;91105.56;5033741;28;19976;-64
2022/07/01 03:46:21;;;;;;;;;;;;;;;15.45;100.00;91102.19;5033587;28;19920;-64
2022/07/01 03:48:46;;;;;;;;;;;;;;;15.55;100.00;91107.13;5033793;28;19999;-64
2022/07/01 03:51:11;;;;;;;;;;;;;;;15.67;100.00;91105.63;5033456;28;19913;-64
2022/07/01 03:56:21;;;;;;;;;;;;;;;15.65;100.00;91114.00;5033379;28;20036;-64
2022/07/01 03:58:46;;;;;;;;;;;;;;;15.68;100.00;91107.97;5033347;28;20393;-64
2022/07/01 04:01:11;;;;;;;;;;;;;;;15.77;100.00;91114.00;5033383;28;19913;-64
2022/07/01 04:03:36;;;;;;;;;;;;;;;15.96;100.00;91112.66;5033396;28;19952;-64
2022/07/01 04:06:02;;;;;;;;;;;;;;;16.10;100.00;91118.47;5033124;28;19999;-64
2022/07/01 04:08:27;;;;;;;;;;;;;;;16.28;100.00;91121.69;5033252;28;20409;-64
2022/07/01 04:10:54;;;;;;;;;;;;;;;16.43;100.00;91112.94;5033242;28;20371;-64
2022/07/01 04:13:20;;;;;;;;;;;;;;;16.68;100.00;91110.97;5033461;28;19928;-64
2022/07/01 04:15:46;;;;;;;;;;;;;;;16.89;100.00;91116.97;5033329;28;19913;-64
2022/07/01 04:18:11;;;;;;;;;;;;;;;17.08;100.00;91108.28;5032929;28;20402;-64
2022/07/01 04:20:36;;;;;;;;;;;;;;;17.21;100.00;91103.63;5033217;28;19912;-64
2022/07/01 04:23:01;;;;;;;;;;;;;;;17.17;100.00;91121.53;5033200;28;19913;-65
2022/07/01 04:25:29;;;;;;;;;;;;;;;17.25;100.00;91112.56;5032813;28;19919;-64
2022/07/01 04:27:55;;;;;;;;;;;;;;;17.32;100.00;91110.81;5033097;28;19917;-64
2022/07/01 04:30:20;;;;;;;;;;;;;;;17.29;100.00;91124.19;5032837;28;20305;-64
2022/07/01 04:32:46;;;;;;;;;;;;;;;17.27;100.00;91121.06;5015054;28;20386;-64
2022/07/01 04:35:12;;;;;;;;;;;;;;;17.36;100.00;91124.38;5032645;28;19917;-64
2022/07/01 04:37:38;;;;;;;;;;;;;;;17.45;100.00;91124.97;5032856;28;19967;-64
2022/07/01 04:40:04;;;;;;;;;;;;;;;17.64;100.00;91124.31;5032560;28;19913;-64
2022/07/01 04:42:29;;;;;;;;;;;;;;;17.80;100.00;91124.34;5032531;28;19917;-64
2022/07/01 04:44:54;;;;;;;;;;;;;;;18.02;100.00;91118.34;5032526;28;19920;-64
2022/07/01 04:47:22;;;;;;;;;;;;;;;18.14;100.00;91126.31;5032550;28;19967;-64
2022/07/01 04:49:47;;;;;;;;;;;;;;;18.25;100.00;91127.34;5032703;28;20026;-64
2022/07/01 04:52:12;;;;;;;;;;;;;;;18.47;99.43;91128.63;5032362;28;19960;-64
2022/07/01 04:54:37;;;;;;;;;;;;;;;18.65;96.02;91123.63;5014578;28;19991;-64
2022/07/01 04:57:03;;;;;;;;;;;;;;;18.87;94.18;91124.84;5032321;28;20378;-64
2022/07/01 04:59:28;;;;;;;;;;;;;;;19.06;92.94;91121.38;5032458;28;19920;-64
2022/07/01 05:01:54;;;;;;;;;;;;;;;19.20;92.57;91124.34;5032410;28;19972;-64
2022/07/01 05:04:19;;;;;;;;;;;;;;;19.31;92.02;91121.88;5032138;28;19924;-65
2022/07/01 05:06:45;;;;;;;;;;;;;;;19.45;89.97;91122.13;5032064;28;20452;-64
2022/07/01 05:09:11;;;;;;;;;;;;;;;19.61;88.03;91112.06;5031950;28;19952;-64
2022/07/01 05:11:36;;;;;;;;;;;;;;;19.78;87.12;91116.19;5031857;28;19924;-64
2022/07/01 05:14:02;;;;;;;;;;;;;;;19.86;85.46;91115.16;5032050;28;19963;-64
2022/07/01 05:16:27;;;;;;;;;;;;;;;19.94;84.69;91116.06;5031903;28;20406;-63
2022/07/01 05:24:20;;;;;;;;;;;;;;;20.64;83.26;91121.00;5032018;28;20008;-63
2022/07/01 05:26:45;;;;;;;;;;;;;;;20.85;82.67;91121.31;5032031;28;20003;-62
2022/07/01 05:29:11;;;;;;;;;;;;;;;20.99;79.39;91120.72;5031444;28;20317;-63
2022/07/01 05:31:36;;;;;;;;;;;;;;;21.18;78.08;91117.88;5031433;28;19917;-62
2022/07/01 05:34:02;;;;;;;;;;;;;;;21.42;76.33;91123.97;5031690;28;19913;-63
2022/07/01 05:36:27;;;;;;;;;;;;;;;21.66;74.29;91120.75;5031869;28;19913;-63
2022/07/01 05:38:52;;;;;;;;;;;;;;;21.80;75.38;91115.47;5031827;28;19913;-63
2022/07/01 05:41:18;;;;;;;;;;;;;;;22.02;74.24;91119.16;5031941;28;19917;-63
2022/07/01 05:43:44;;;;;;;;;;;;;;;22.26;74.24;91125.19;5031540;28;20383;-63
2022/07/01 05:46:09;;;;;;;;;;;;;;;22.47;76.74;91127.28;5031373;28;19917;-64
2022/07/01 05:48:34;;;;;;;;;;;;;;;22.76;78.89;91125.53;5031559;28;19924;-64
2022/07/01 05:51:00;;;;;;;;;;;;;;;24.09;75.46;91129.19;5031665;28;19920;-64
2022/07/01 05:53:25;;;;;;;;;;;;;;;27.67;63.26;91127.03;5031263;28;19935;-65
2022/07/01 05:55:50;;;;;;;;;;;;;;;30.99;50.27;91128.09;5031555;28;19913;-64
2022/07/01 05:58:16;;;;;;;;;;;;;;;32.90;44.80;91126.72;5031437;28;19923;-65
2022/07/01 06:00:41;;;;;;;;;;;;;;;33.51;42.69;91128.25;5031578;28;19999;-65
2022/07/01 06:03:07;;;;;;;;;;;;;;;35.14;40.81;91134.47;5013916;28;19971;-66
2022/07/01 06:05:33;;;;;;;;;;;;;;;37.22;37.95;91129.66;5031196;28;20008;-63
2022/07/01 06:07:58;;;;;;;;;;;;;;;38.65;35.40;91127.53;5031434;28;20275;-66
2022/07/01 06:10:23;;;;;;;;;;;;;;;39.22;34.10;91132.00;5031500;28;20396;-66
2022/07/01 06:12:49;;;;;;;;;;;;;;;39.75;32.78;91128.94;5031453;28;20314;-65
2022/07/01 06:15:14;;;;;;;;;;;;;;;39.83;32.70;91129.28;5031308;28;20398;-63
2022/07/01 06:17:40;;;;;;;;;;;;;;;40.16;31.98;91122.59;5031480;28;19917;-65
2022/07/01 06:20:06;;;;;;;;;;;;;;;41.44;31.12;91132.16;5031349;28;19913;-64
2022/07/01 06:22:32;;;;;;;;;;;;;;;41.14;31.02;91133.69;5031302;28;19978;-65
2022/07/01 06:24:58;;;;;;;;;;;;;;;42.03;28.73;91125.88;5031244;28;19913;-65
2022/07/01 06:27:23;;;;;;;;;;;;;;;41.86;29.15;91117.44;5031244;28;19920;-63
2022/07/01 06:29:49;;;;;;;;;;;;;;;42.53;27.72;91132.94;5031169;28;20066;-63
2022/07/01 06:32:14;;;;;;;;;;;;;;;43.04;26.70;91135.31;5031123;28;19932;-63
2022/07/01 06:34:40;;;;;;;;;;;;;;;43.62;26.90;91135.53;5031161;28;19948;-64
2022/07/01 06:37:05;;;;;;;;;;;;;;;45.10;24.99;91135.91;5031063;28;19917;-63
2022/07/01 06:39:30;;;;;;;;;;;;;;;44.24;26.37;91126.97;5030953;28;19913;-63
2022/07/01 06:41:56;;;;;;;;;;;;;;;44.68;25.51;91131.59;5031376;28;19932;-63
2022/07/01 06:44:21;;;;;;;;;;;;;;;44.44;26.32;91123.03;5030910;28;19949;-65
2022/07/01 06:46:47;;;;;;;;;;;;;;;45.41;25.55;91130.31;5031064;28;19917;-64
2022/07/01 06:49:12;;;;;;;;;;;;;;;42.44;27.83;91123.47;5031001;28;19913;-64
2022/07/01 06:51:37;;;;;;;;;;;;;;;41.28;28.77;91125.19;5030854;28;19921;-65
2022/07/01 06:54:03;;;;;;;;;;;;;;;39.89;29.87;91127.34;5030638;28;19920;-64
2022/07/01 06:56:28;;;;;;;;;;;;;;;41.34;28.40;91124.47;5030776;28;19967;-65
2022/07/01 06:58:54;;;;;;;;;;;;;;;43.10;27.17;91129.72;5030861;28;19920;-65
2022/07/01 07:01:19;;;;;;;;;;;;;;;42.50;27.43;91123.53;5030843;28;19917;-64
2022/07/01 07:03:45;;;;;;;;;;;;;;;42.80;27.79;91123.06;5013222;28;20024;-66
2022/07/01 07:06:10;;;;;;;;;;;;;;;43.20;27.37;91124.59;5033841;28;19917;-65
2022/07/01 07:08:36;;;;;;;;;;;;;;;44.67;26.37;91134.94;5034632;28;19919;-66
2022/07/01 07:11:02;;;;;;;;;;;;;;;45.23;25.81;91121.25;5034369;28;19936;-67
2022/07/01 07:13:29;;;;;;;;;;;;;;;43.68;26.81;91134.75;5034405;28;19979;-65
2022/07/01 07:15:55;;;;;;;;;;;;;;;44.44;26.29;91128.66;5034280;28;19986;-66
2022/07/01 07:18:20;;;;;;;;;;;;;;;45.43;26.03;91130.56;5034114;28;19944;-66
2022/07/01 07:20:47;;;;;;;;;;;;;;;45.44;24.94;91126.47;5034189;28;19919;-66
2022/07/01 07:23:13;;;;;;;;;;;;;;;44.11;25.01;91130.34;5034413;28;20353;-66
2022/07/01 07:25:38;;;;;;;;;;;;;;;44.35;25.78;91132.53;5034020;28;20422;-66
2022/07/01 07:28:03;;;;;;;;;;;;;;;46.03;24.60;91131.25;5034034;28;20390;-67
2022/07/01 07:30:29;;;;;;;;;;;;;;;43.30;27.50;91131.50;5034062;28;19916;-67
2022/07/01 07:32:54;;;;;;;;;;;;;;;42.40;27.02;91130.59;5034000;28;20361;-67
2022/07/01 07:35:19;;;;;;;;;;;;;;;44.51;25.57;91128.13;5033814;28;20004;-67
2022/07/01 07:37:45;;;;;;;;;;;;;;;46.04;25.03;91134.84;5033942;28;19924;-67
2022/07/01 07:40:12;;;;;;;;;;;;;;;44.12;26.42;91137.47;5033703;28;19913;-67
2022/07/01 07:42:38;;;;;;;;;;;;;;;43.57;26.45;91132.75;5033825;28;19916;-66
2022/07/01 07:45:06;;;;;;;;;;;;;;;41.24;28.86;91124.66;5033834;28;20016;-66
2022/07/01 07:47:32;;;;;;;;;;;;;;;39.98;28.98;91130.00;5033913;28;19922;-66
2022/07/01 07:49:57;;;;;;;;;;;;;;;40.08;29.93;91130.63;5033611;28;19913;-66
2022/07/01 07:52:22;;;;;;;;;;;;;;;42.02;28.24;91121.56;5033508;28;20283;-66
2022/07/01 07:54:48;;;;;;;;;;;;;;;42.60;27.95;91130.41;5033508;28;20012;-66
2022/07/01 07:57:13;;;;;;;;;;;;;;;42.40;27.70;91125.75;5033528;28;20394;-65
2022/07/01 07:59:39;;;;;;;;;;;;;;;42.34;28.53;91132.63;5033484;28;19924;-65
2022/07/01 08:02:04;;;;;;;;;;;;;;;38.95;30.30;91127.50;5033557;28;19924;-65
2022/07/01 08:04:29;;;;;;;;;;;;;;;38.38;31.25;91124.25;5033448;28;19916;-65
2022/07/01 08:06:54;;;;;;;;;;;;;;;38.68;31.49;91122.28;5033424;28;19919;-65
2022/07/01 08:09:20;;;;;;;;;;;;;;;40.60;29.18;91120.31;5033309;28;19913;-65
2022/07/01 08:11:45;;;;;;;;;;;;;;;42.84;27.66;91124.34;5033332;28;19919;-65
2022/07/01 08:14:10;;;;;;;;;;;;;;;40.72;28.87;91120.41;5033203;28;19912;-65
2022/07/01 08:16:36;;;;;;;;;;;;;;;41.37;28.23;91126.28;5032913;28;19913;-65
2022/07/01 08:19:02;;;;;;;;;;;;;;;40.81;27.95;91120.22;5033121;28;20004;-65
2022/07/01 08:21:28;;;;;;;;;;;;;;;38.25;31.89;91108.63;5008487;28;20327;-65
2022/07/01 08:23:53;;;;;;;;;;;;;;;38.78;31.47;91112.56;5012974;28;19913;-65
2022/07/01 08:26:18;;;;;;;;;;;;;;;39.79;32.31;91114.81;5012467;28;19913;-65
2022/07/01 08:28:44;;;;;;;;;;;;;;;40.54;30.25;91111.09;5012935;28;20366;-65
2022/07/01 08:31:09;;;;;;;;;;;;;;;42.35;29.06;91118.13;5013069;28;19957;-66
2022/07/01 08:33:37;;;;;;;;;;;;;;;42.39;28.74;91118.63;5012745;28;19917;-68
2022/07/01 08:36:03;;;;;;;;;;;;;;;43.57;27.17;91116.69;5012963;28;19913;-66
2022/07/01 08:38:28;;;;;;;;;;;;;;;44.55;27.35;91113.81;5013040;28;20028;-66
2022/07/01 08:40:53;;;;;;;;;;;;;;;43.88;26.00;91103.66;5012380;28;20000;-66
2022/07/01 08:43:18;;;;;;;;;;;;;;;43.99;26.00;91111.22;5012948;28;20713;-66
2022/07/01 08:45:44;;;;;;;;;;;;;;;40.26;28.81;91105.25;5012515;28;19940;-66
2022/07/01 08:48:09;;;;;;;;;;;;;;;41.08;28.11;91111.34;5012521;28;19968;-66
2022/07/01 08:50:36;;;;;;;;;;;;;;;42.01;26.24;91105.28;5012475;28;19917;-66
2022/07/01 08:53:02;;;;;;;;;;;;;;;42.10;25.79;91103.03;5012605;28;20384;-67
2022/07/01 08:55:28;;;;;;;;;;;;;;;41.84;25.81;91108.78;5012029;28;20024;-66
2022/07/01 08:57:53;;;;;;;;;;;;;;;40.79;26.61;91111.59;5012725;28;19964;-66
2022/07/01 09:00:20;;;;;;;;;;;;;;;40.64;26.78;91104.09;5012538;28;19920;-66
2022/07/01 09:02:53;;;;;;;;;;;;;;;40.13;26.55;91109.66;5012700;28;19917;-66
2022/07/01 09:05:18;;;;;;;;;;;;;;;41.74;26.45;91104.66;5011989;28;20387;-66
2022/07/01 09:07:44;;;;;;;;;;;;;;;42.30;25.91;91115.31;5012263;28;19920;-66
2022/07/01 09:10:19;;;;;;;;;;;;;;;42.35;24.43;91106.94;5012209;28;20407;-67
2022/07/01 09:12:46;;;;;;;;;;;;;;;41.71;25.94;91111.25;5012227;28;19918;-65
2022/07/01 09:15:37;;;;;;;;;;;;;;;42.42;25.13;91114.81;5012129;28;19920;-65
2022/07/01 09:18:13;;;;;;;;;;;;;;;42.42;26.04;91111.25;5009087;28;19913;-67
2022/07/01 09:20:43;;;;;;;;;;;;;;;44.26;25.37;91123.66;5011950;28;20004;-67
2022/07/01 09:23:12;;;;;;;;;;;;;;;46.50;24.36;91120.47;5012099;28;19929;-67
2022/07/01 09:25:45;;;;;;;;;;;;;;;43.04;26.21;91124.09;5011450;28;19913;-66
2022/07/01 09:28:40;;;;;;;;;;;;;;;41.87;26.60;91113.38;5011387;28;19920;-66
2022/07/01 09:31:05;;;;;;;;;;;;;;;43.44;25.83;91119.28;4998751;28;20318;-67
2022/07/01 09:33:30;;;;;;;;;;;;;;;42.36;26.04;91119.66;5011933;28;19913;-67
2022/07/01 09:35:56;;;;;;;;;;;;;;;44.36;23.35;91117.22;5011831;28;20004;-67
2022/07/01 09:38:22;;;;;;;;;;;;;;;43.41;23.75;91111.91;5011887;28;19963;-66
2022/07/01 09:40:54;;;;;;;;;;;;;;;42.26;25.08;91109.97;5011418;28;20409;-68
2022/07/01 09:43:38;;;;;;;;;;;;;;;41.46;25.26;91106.53;5011833;28;19917;-68
2022/07/01 09:46:06;;;;;;;;;;;;;;;42.13;26.21;91102.03;5011837;28;20377;-69
2022/07/01 09:48:34;;;;;;;;;;;;;;;42.71;23.44;91101.69;5011773;28;19913;-69
2022/07/01 09:51:04;;;;;;;;;;;;;;;41.46;24.58;91112.09;5011750;28;20031;-68
2022/07/01 09:53:29;;;;;;;;;;;;;;;41.49;23.70;91106.28;5011505;28;20004;-68
2022/07/01 09:55:55;;;;;;;;;;;;;;;41.72;25.85;91107.19;5011334;28;19992;-68
2022/07/01 09:58:20;;;;;;;;;;;;;;;41.92;23.66;91097.13;5011564;28;19915;-68
2022/07/01 10:00:46;;;;;;;;;;;;;;;41.39;25.73;91101.41;5011449;28;19913;-67
2022/07/01 10:03:12;;;;;;;;;;;;;;;41.47;25.69;91099.66;5011577;28;19921;-68
2022/07/01 10:05:57;;;;;;;;;;;;;;;42.03;23.66;91097.16;5011276;28;20408;-67
2022/07/01 10:08:25;;;;;;;;;;;;;;;41.21;23.74;91099.75;5011041;28;19975;-66
2022/07/01 10:11:10;;;;;;;;;;;;;;;41.09;23.24;91095.34;5010950;28;20386;-67
2022/07/01 10:13:35;;;;;;;;;;;;;;;40.32;22.83;91097.69;5011447;28;19917;-69
2022/07/01 10:16:02;;;;;;;;;;;;;;;40.22;23.87;91087.19;5011464;28;19920;-68
2022/07/01 10:18:28;;;;;;;;;;;;;;;41.56;22.89;91088.31;5003427;28;19960;-68
2022/07/01 10:20:54;;;;;;;;;;;;;;;40.88;26.00;91080.75;5011370;28;19969;-68
2022/07/01 10:23:21;;;;;;;;;;;;;;;42.09;25.66;91083.97;5011107;28;19918;-69
2022/07/01 10:25:51;;;;;;;;;;;;;;;42.40;23.97;91088.63;5011020;28;19940;-69
2022/07/01 10:28:24;;;;;;;;;;;;;;;41.81;25.65;91081.81;4993851;28;19914;-68
2022/07/01 10:30:56;;;;;;;;;;;;;;;42.74;22.00;91086.66;5025588;28;19913;-68
2022/07/01 10:33:29;;;;;;;;;;;;;;;42.56;23.69;91079.53;5031151;28;19917;-69
2022/07/01 10:35:54;;;;;;;;;;;;;;;42.44;23.65;91075.16;5031459;28;19913;-67
2022/07/01 10:38:19;;;;;;;;;;;;;;;42.20;24.96;91072.84;5031613;28;20398;-68
2022/07/01 10:40:46;;;;;;;;;;;;;;;41.66;22.15;91063.69;5034534;28;21111;-68
2022/07/01 10:43:14;;;;;;;;;;;;;;;42.71;23.24;91065.28;5055142;28;19948;-67
2022/07/01 10:45:46;;;;;;;;;;;;;;;42.65;21.12;91073.69;5054744;28;19913;-68
2022/07/01 10:48:21;;;;;;;;;;;;;;;41.76;24.29;91068.59;5055008;28;19912;-68
2022/07/01 10:50:50;;;;;;;;;;;;;;;41.92;21.75;91057.97;5054741;28;19908;-68
2022/07/01 10:53:16;;;;;;;;;;;;;;;40.85;22.60;91064.97;5054697;28;20006;-67
2022/07/01 10:55:44;;;;;;;;;;;;;;;40.73;23.06;91060.56;5054482;28;20385;-67
2022/07/01 10:58:10;;;;;;;;;;;;;;;40.73;25.62;91061.31;5054411;28;19917;-67
2022/07/01 11:00:36;;;;;;;;;;;;;;;41.91;23.36;91056.47;5054319;28;19970;-67
2022/07/01 11:03:10;;;;;;;;;;;;;;;40.70;24.15;91063.06;5054790;28;19970;-67
2022/07/01 11:05:37;;;;;;;;;;;;;;;39.74;24.10;91068.16;5054319;28;19927;-67
2022/07/01 11:08:04;;;;;;;;;;;;;;;40.40;23.33;91065.38;5054282;28;19913;-67
2022/07/01 11:10:29;;;;;;;;;;;;;;;40.55;23.64;91058.88;5054290;28;20382;-67
2022/07/01 11:12:55;;;;;;;;;;;;;;;40.72;25.09;91059.03;5054293;28;19924;-67
2022/07/01 11:15:22;;;;;;;;;;;;;;;40.86;22.67;91061.69;5054226;28;19913;-67
2022/07/01 11:17:48;;;;;;;;;;;;;;;39.64;24.24;91061.97;5054275;28;19916;-67
2022/07/01 11:20:13;;;;;;;;;;;;;;;38.88;25.35;91061.91;5054131;28;20326;-67
2022/07/01 11:22:39;;;;;;;;;;;;;;;39.33;24.66;91065.34;5054149;28;19917;-67
2022/07/01 11:25:06;;;;;;;;;;;;;;;38.96;26.16;91065.03;5054068;28;19959;-67
2022/07/01 11:27:32;;;;;;;;;;;;;;;38.19;26.60;91063.31;5054339;28;19913;-67
2022/07/01 11:29:59;;;;;;;;;;;;;;;38.40;27.87;91053.03;5054059;28;19916;-67
2022/07/01 11:32:28;;;;;;;;;;;;;;;39.14;27.58;91052.94;5053994;28;19913;-67
2022/07/01 11:34:54;;;;;;;;;;;;;;;39.98;26.59;91046.41;5053752;28;20397;-67
2022/07/01 11:40:07;;;;;;;;;;;;;;;40.54;24.97;91046.19;5053708;28;19920;-67
2022/07/01 11:42:32;;;;;;;;;;;;;;;39.94;26.94;91051.41;5053762;28;19913;-67
2022/07/01 11:44:58;;;;;;;;;;;;;;;40.22;28.12;91051.72;5053496;28;19919;-67
2022/07/01 11:47:24;;;;;;;;;;;;;;;40.69;27.81;91047.59;5053534;28;19912;-67
2022/07/01 11:49:49;;;;;;;;;;;;;;;38.44;28.92;91058.41;5053270;28;19920;-67
2022/07/01 11:52:16;;;;;;;;;;;;;;;38.28;28.73;91052.06;5053343;28;19916;-67
2022/07/01 11:54:44;;;;;;;;;;;;;;;38.35;29.19;91056.50;5053522;28;20394;-67
2022/07/01 11:57:10;;;;;;;;;;;;;;;38.59;29.98;91056.38;5053469;28;20309;-67
2022/07/01 11:59:38;;;;;;;;;;;;;;;39.28;29.98;91049.31;5053680;28;19912;-68
2022/07/01 12:02:03;;;;;;;;;;;;;;;39.33;28.41;91045.09;5053676;28;19912;-67
2022/07/01 12:04:29;;;;;;;;;;;;;;;39.72;28.62;91043.56;5053087;28;19913;-67
2022/07/01 12:06:55;;;;;;;;;;;;;;;39.17;28.98;91036.03;5053426;28;19967;-67
2022/07/01 12:09:20;;;;;;;;;;;;;;;40.86;27.27;91035.81;5053265;28;19916;-68
2022/07/01 12:11:46;;;;;;;;;;;;;;;41.30;27.22;91026.97;5053276;28;19920;-68
2022/07/01 12:14:18;;;;;;;;;;;;;;;41.00;25.92;91035.66;5053342;28;19913;-68
2022/07/01 12:16:43;;;;;;;;;;;;;;;40.24;28.06;91032.50;5053166;28;19912;-68
2022/07/01 12:19:09;;;;;;;;;;;;;;;40.46;28.82;91023.56;5052953;28;19963;-68
2022/07/01 12:21:47;;;;;;;;;;;;;;;41.28;24.80;91021.13;5053280;28;19924;-68
2022/07/01 12:24:13;;;;;;;;;;;;;;;40.58;28.13;91019.63;5052517;28;19912;-68
2022/07/01 12:27:05;;;;;;;;;;;;;;;40.10;25.66;91020.19;5052959;28;19913;-67
2022/07/01 12:29:37;;;;;;;;;;;;;;;40.18;25.77;91019.75;5048927;28;19919;-68
2022/07/01 12:32:03;;;;;;;;;;;;;;;38.29;27.93;91025.81;5052845;28;20009;-68
2022/07/01 12:34:48;;;;;;;;;;;;;;;37.46;29.16;91022.25;5052605;28;20537;-67
2022/07/01 12:37:15;;;;;;;;;;;;;;;38.34;27.50;91019.56;5052796;28;20382;-67
2022/07/01 12:39:47;;;;;;;;;;;;;;;36.84;29.97;91014.63;5052688;28;19923;-67
2022/07/01 12:42:39;;;;;;;;;;;;;;;36.17;30.62;91013.03;5052597;28;19959;-67
2022/07/01 12:45:06;;;;;;;;;;;;;;;36.04;31.91;91009.69;5048355;28;19913;-66
2022/07/01 12:47:42;;;;;;;;;;;;;;;35.30;33.88;91020.78;5052389;28;19913;-66
2022/07/01 12:50:09;;;;;;;;;;;;;;;34.42;36.09;91027.97;5052450;28;19916;-66
2022/07/01 12:52:34;;;;;;;;;;;;;;;34.87;35.94;91027.31;5052351;28;19913;-66